sensor_id;sensor_type;location;lat;lon;timestamp;P1;durP1;ratioP1;P2;durP2;ratioP2
52978;SDS011;51106;53.186;6.598;2022-07-24T00:01:51;5.43;;;3.58;;
52978;SDS011;51106;53.186;6.598;2022-07-24T00:04:01;4.43;;;3.67;;
52978;SDS011;51106;53.186;6.598;2022-07-24T00:06:04;4.72;;;3.17;;
52978;SDS011;51106;53.186;6.598;2022-07-24T00:08:06;5.90;;;3.83;;
52978;SDS011;51106;53.186;6.598;2022-07-24T00:10:09;5.43;;;3.25;;
52978;SDS011;51106;53.186;6.598;2022-07-24T00:12:13;4.32;;;3.55;;
52978;SDS011;51106;53.186;6.598;2022-07-24T00:14:15;6.05;;;3.65;;
52978;SDS011;51106;53.186;6.598;2022-07-24T00:16:17;4.15;;;3.60;;
52978;SDS011;51106;53.186;6.598;2022-07-24T00:18:19;6.10;;;2.95;;
52978;SDS011;51106;53.186;6.598;2022-07-24T00:20:21;3.88;;;3.10;;
52978;SDS011;51106;53.186;6.598;2022-07-24T00:22:24;4.07;;;3.15;;
52978;SDS011;51106;53.186;6.598;2022-07-24T00:24:26;8.07;;;3.70;;
52978;SDS011;51106;53.186;6.598;2022-07-24T00:26:28;4.43;;;3.50;;
52978;SDS011;51106;53.186;6.598;2022-07-24T00:28:30;5.68;;;3.45;;
52978;SDS011;51106;53.186;6.598;2022-07-24T00:30:33;6.60;;;3.97;;
52978;SDS011;51106;53.186;6.598;2022-07-24T00:32:35;6.03;;;4.15;;
52978;SDS011;51106;53.186;6.598;2022-07-24T00:34:37;6.30;;;3.63;;
52978;SDS011;51106;53.186;6.598;2022-07-24T00:36:39;6.53;;;3.80;;
52978;SDS011;51106;53.186;6.598;2022-07-24T00:38:44;6.10;;;3.97;;
52978;SDS011;51106;53.186;6.598;2022-07-24T00:40:47;7.50;;;4.25;;
52978;SDS011;51106;53.186;6.598;2022-07-24T00:42:50;5.95;;;4.18;;
52978;SDS011;51106;53.186;6.598;2022-07-24T00:44:52;5.05;;;4.00;;
52978;SDS011;51106;53.186;6.598;2022-07-24T00:46:54;7.10;;;4.68;;
52978;SDS011;51106;53.186;6.598;2022-07-24T00:49:00;6.38;;;4.40;;
52978;SDS011;51106;53.186;6.598;2022-07-24T00:51:05;7.20;;;4.30;;
52978;SDS011;51106;53.186;6.598;2022-07-24T00:53:07;8.10;;;4.18;;
52978;SDS011;51106;53.186;6.598;2022-07-24T00:55:10;5.05;;;3.90;;
52978;SDS011;51106;53.186;6.598;2022-07-24T00:57:12;4.75;;;3.75;;
52978;SDS011;51106;53.186;6.598;2022-07-24T00:59:14;4.45;;;3.72;;
52978;SDS011;51106;53.186;6.598;2022-07-24T01:01:17;5.30;;;4.20;;
52978;SDS011;51106;53.186;6.598;2022-07-24T01:03:20;5.80;;;4.50;;
52978;SDS011;51106;53.186;6.598;2022-07-24T01:05:22;5.47;;;4.25;;
52978;SDS011;51106;53.186;6.598;2022-07-24T01:07:24;5.25;;;4.22;;
52978;SDS011;51106;53.186;6.598;2022-07-24T01:09:26;7.25;;;4.25;;
52978;SDS011;51106;53.186;6.598;2022-07-24T01:11:29;6.25;;;4.25;;
52978;SDS011;51106;53.186;6.598;2022-07-24T01:13:32;5.15;;;3.70;;
52978;SDS011;51106;53.186;6.598;2022-07-24T01:15:34;4.82;;;4.03;;
52978;SDS011;51106;53.186;6.598;2022-07-24T01:17:36;5.78;;;4.10;;
52978;SDS011;51106;53.186;6.598;2022-07-24T01:19:41;6.13;;;4.55;;
52978;SDS011;51106;53.186;6.598;2022-07-24T01:21:47;6.15;;;4.10;;
52978;SDS011;51106;53.186;6.598;2022-07-24T01:23:50;5.65;;;3.88;;
52978;SDS011;51106;53.186;6.598;2022-07-24T01:25:52;4.90;;;3.97;;
52978;SDS011;51106;53.186;6.598;2022-07-24T01:27:54;4.70;;;3.90;;
52978;SDS011;51106;53.186;6.598;2022-07-24T01:29:56;5.65;;;3.45;;
52978;SDS011;51106;53.186;6.598;2022-07-24T01:31:58;5.55;;;3.45;;
52978;SDS011;51106;53.186;6.598;2022-07-24T01:34:01;4.57;;;4.03;;
52978;SDS011;51106;53.186;6.598;2022-07-24T01:36:03;4.82;;;3.22;;
52978;SDS011;51106;53.186;6.598;2022-07-24T01:38:05;4.10;;;3.53;;
52978;SDS011;51106;53.186;6.598;2022-07-24T01:40:10;4.50;;;3.58;;
52978;SDS011;51106;53.186;6.598;2022-07-24T01:42:12;5.65;;;4.25;;
52978;SDS011;51106;53.186;6.598;2022-07-24T01:44:14;4.80;;;3.50;;
52978;SDS011;51106;53.186;6.598;2022-07-24T01:46:18;4.30;;;3.08;;
52978;SDS011;51106;53.186;6.598;2022-07-24T01:48:21;3.92;;;3.50;;
52978;SDS011;51106;53.186;6.598;2022-07-24T01:50:23;3.58;;;3.20;;
52978;SDS011;51106;53.186;6.598;2022-07-24T01:52:25;6.07;;;3.70;;
52978;SDS011;51106;53.186;6.598;2022-07-24T01:54:28;6.07;;;3.72;;
52978;SDS011;51106;53.186;6.598;2022-07-24T01:56:30;5.28;;;3.65;;
52978;SDS011;51106;53.186;6.598;2022-07-24T01:58:34;5.07;;;3.92;;
52978;SDS011;51106;53.186;6.598;2022-07-24T02:00:36;4.97;;;3.67;;
52978;SDS011;51106;53.186;6.598;2022-07-24T02:02:38;5.55;;;3.65;;
52978;SDS011;51106;53.186;6.598;2022-07-24T02:04:42;6.18;;;3.42;;
52978;SDS011;51106;53.186;6.598;2022-07-24T02:06:44;4.57;;;3.70;;
52978;SDS011;51106;53.186;6.598;2022-07-24T02:08:46;5.35;;;3.40;;
52978;SDS011;51106;53.186;6.598;2022-07-24T02:10:48;4.88;;;4.25;;
52978;SDS011;51106;53.186;6.598;2022-07-24T02:12:50;6.20;;;3.95;;
52978;SDS011;51106;53.186;6.598;2022-07-24T02:14:53;5.65;;;3.97;;
52978;SDS011;51106;53.186;6.598;2022-07-24T02:16:55;5.43;;;4.22;;
52978;SDS011;51106;53.186;6.598;2022-07-24T02:18:57;5.30;;;3.33;;
52978;SDS011;51106;53.186;6.598;2022-07-24T02:20:59;4.10;;;3.53;;
52978;SDS011;51106;53.186;6.598;2022-07-24T02:23:01;4.68;;;3.80;;
52978;SDS011;51106;53.186;6.598;2022-07-24T02:25:04;7.13;;;3.80;;
52978;SDS011;51106;53.186;6.598;2022-07-24T02:27:06;5.40;;;4.03;;
52978;SDS011;51106;53.186;6.598;2022-07-24T02:29:08;4.70;;;3.65;;
52978;SDS011;51106;53.186;6.598;2022-07-24T02:31:10;4.80;;;3.80;;
52978;SDS011;51106;53.186;6.598;2022-07-24T02:33:14;5.97;;;3.60;;
52978;SDS011;51106;53.186;6.598;2022-07-24T02:35:16;5.68;;;4.15;;
52978;SDS011;51106;53.186;6.598;2022-07-24T02:37:18;5.70;;;4.10;;
52978;SDS011;51106;53.186;6.598;2022-07-24T02:39:20;5.47;;;3.38;;
52978;SDS011;51106;53.186;6.598;2022-07-24T02:41:22;7.45;;;4.28;;
52978;SDS011;51106;53.186;6.598;2022-07-24T02:43:25;5.82;;;3.88;;
52978;SDS011;51106;53.186;6.598;2022-07-24T02:45:28;5.88;;;4.03;;
52978;SDS011;51106;53.186;6.598;2022-07-24T02:47:30;4.80;;;4.07;;
52978;SDS011;51106;53.186;6.598;2022-07-24T02:49:32;5.57;;;3.72;;
52978;SDS011;51106;53.186;6.598;2022-07-24T02:51:34;3.97;;;3.58;;
52978;SDS011;51106;53.186;6.598;2022-07-24T02:53:36;4.30;;;3.90;;
52978;SDS011;51106;53.186;6.598;2022-07-24T02:55:39;4.60;;;4.00;;
52978;SDS011;51106;53.186;6.598;2022-07-24T02:57:41;8.95;;;4.05;;
52978;SDS011;51106;53.186;6.598;2022-07-24T02:59:43;5.75;;;4.20;;
52978;SDS011;51106;53.186;6.598;2022-07-24T03:01:51;4.35;;;3.80;;
52978;SDS011;51106;53.186;6.598;2022-07-24T03:03:53;5.85;;;3.50;;
52978;SDS011;51106;53.186;6.598;2022-07-24T03:05:55;4.38;;;3.88;;
52978;SDS011;51106;53.186;6.598;2022-07-24T03:07:57;5.28;;;3.90;;
52978;SDS011;51106;53.186;6.598;2022-07-24T03:09:59;5.03;;;4.13;;
52978;SDS011;51106;53.186;6.598;2022-07-24T03:12:01;5.38;;;4.18;;
52978;SDS011;51106;53.186;6.598;2022-07-24T03:14:03;5.13;;;4.07;;
52978;SDS011;51106;53.186;6.598;2022-07-24T03:16:06;6.00;;;4.07;;
52978;SDS011;51106;53.186;6.598;2022-07-24T03:18:08;5.50;;;4.30;;
52978;SDS011;51106;53.186;6.598;2022-07-24T03:20:22;5.88;;;4.30;;
52978;SDS011;51106;53.186;6.598;2022-07-24T03:22:28;6.00;;;4.50;;
52978;SDS011;51106;53.186;6.598;2022-07-24T03:24:33;5.65;;;4.40;;
52978;SDS011;51106;53.186;6.598;2022-07-24T03:26:35;6.20;;;4.30;;
52978;SDS011;51106;53.186;6.598;2022-07-24T03:28:37;5.18;;;4.40;;
52978;SDS011;51106;53.186;6.598;2022-07-24T03:30:39;5.78;;;4.70;;
52978;SDS011;51106;53.186;6.598;2022-07-24T03:32:42;5.32;;;3.92;;
52978;SDS011;51106;53.186;6.598;2022-07-24T03:34:44;5.97;;;3.67;;
52978;SDS011;51106;53.186;6.598;2022-07-24T03:36:46;5.13;;;3.88;;
52978;SDS011;51106;53.186;6.598;2022-07-24T03:38:50;5.88;;;4.40;;
52978;SDS011;51106;53.186;6.598;2022-07-24T03:40:52;5.60;;;4.53;;
52978;SDS011;51106;53.186;6.598;2022-07-24T03:42:54;5.88;;;4.78;;
52978;SDS011;51106;53.186;6.598;2022-07-24T03:44:59;7.43;;;4.72;;
52978;SDS011;51106;53.186;6.598;2022-07-24T03:47:02;6.75;;;4.15;;
52978;SDS011;51106;53.186;6.598;2022-07-24T03:49:07;7.30;;;4.97;;
52978;SDS011;51106;53.186;6.598;2022-07-24T03:51:10;5.93;;;4.57;;
52978;SDS011;51106;53.186;6.598;2022-07-24T03:53:12;6.93;;;4.78;;
52978;SDS011;51106;53.186;6.598;2022-07-24T03:55:14;5.65;;;4.55;;
52978;SDS011;51106;53.186;6.598;2022-07-24T03:57:19;6.35;;;5.63;;
52978;SDS011;51106;53.186;6.598;2022-07-24T03:59:21;5.75;;;4.97;;
52978;SDS011;51106;53.186;6.598;2022-07-24T04:01:24;4.93;;;4.43;;
52978;SDS011;51106;53.186;6.598;2022-07-24T04:03:26;5.82;;;4.22;;
52978;SDS011;51106;53.186;6.598;2022-07-24T04:05:28;10.63;;;5.50;;
52978;SDS011;51106;53.186;6.598;2022-07-24T04:07:30;8.70;;;5.07;;
52978;SDS011;51106;53.186;6.598;2022-07-24T04:09:32;6.03;;;5.38;;
52978;SDS011;51106;53.186;6.598;2022-07-24T04:11:37;9.35;;;4.90;;
52978;SDS011;51106;53.186;6.598;2022-07-24T04:13:39;5.72;;;4.82;;
52978;SDS011;51106;53.186;6.598;2022-07-24T04:15:44;5.60;;;4.55;;
52978;SDS011;51106;53.186;6.598;2022-07-24T04:17:47;5.65;;;4.63;;
52978;SDS011;51106;53.186;6.598;2022-07-24T04:19:49;5.88;;;4.80;;
52978;SDS011;51106;53.186;6.598;2022-07-24T04:21:51;6.25;;;5.10;;
52978;SDS011;51106;53.186;6.598;2022-07-24T04:23:53;6.18;;;4.50;;
52978;SDS011;51106;53.186;6.598;2022-07-24T04:25:55;8.95;;;5.15;;
52978;SDS011;51106;53.186;6.598;2022-07-24T04:27:57;7.43;;;5.38;;
52978;SDS011;51106;53.186;6.598;2022-07-24T04:29:59;5.95;;;4.80;;
52978;SDS011;51106;53.186;6.598;2022-07-24T04:32:01;5.63;;;5.00;;
52978;SDS011;51106;53.186;6.598;2022-07-24T04:34:03;7.90;;;5.68;;
52978;SDS011;51106;53.186;6.598;2022-07-24T04:36:05;8.88;;;5.20;;
52978;SDS011;51106;53.186;6.598;2022-07-24T04:38:11;7.00;;;4.95;;
52978;SDS011;51106;53.186;6.598;2022-07-24T04:40:16;5.32;;;4.45;;
52978;SDS011;51106;53.186;6.598;2022-07-24T04:42:18;7.05;;;5.03;;
52978;SDS011;51106;53.186;6.598;2022-07-24T04:44:20;6.70;;;5.30;;
52978;SDS011;51106;53.186;6.598;2022-07-24T04:46:22;6.38;;;5.32;;
52978;SDS011;51106;53.186;6.598;2022-07-24T04:48:24;6.85;;;5.45;;
52978;SDS011;51106;53.186;6.598;2022-07-24T04:50:27;8.07;;;4.85;;
52978;SDS011;51106;53.186;6.598;2022-07-24T04:52:29;8.30;;;5.72;;
52978;SDS011;51106;53.186;6.598;2022-07-24T04:54:31;6.28;;;5.13;;
52978;SDS011;51106;53.186;6.598;2022-07-24T04:56:33;9.15;;;5.70;;
52978;SDS011;51106;53.186;6.598;2022-07-24T04:58:36;6.00;;;5.10;;
52978;SDS011;51106;53.186;6.598;2022-07-24T05:00:38;7.15;;;5.88;;
52978;SDS011;51106;53.186;6.598;2022-07-24T05:02:40;5.78;;;4.78;;
52978;SDS011;51106;53.186;6.598;2022-07-24T05:04:42;8.82;;;5.60;;
52978;SDS011;51106;53.186;6.598;2022-07-24T05:06:44;6.35;;;5.53;;
52978;SDS011;51106;53.186;6.598;2022-07-24T05:08:47;6.30;;;5.20;;
52978;SDS011;51106;53.186;6.598;2022-07-24T05:10:49;5.25;;;4.57;;
52978;SDS011;51106;53.186;6.598;2022-07-24T05:12:51;9.05;;;5.40;;
52978;SDS011;51106;53.186;6.598;2022-07-24T05:14:53;7.32;;;5.38;;
52978;SDS011;51106;53.186;6.598;2022-07-24T05:16:55;8.50;;;5.50;;
52978;SDS011;51106;53.186;6.598;2022-07-24T05:18:58;6.72;;;5.25;;
52978;SDS011;51106;53.186;6.598;2022-07-24T05:21:03;6.15;;;5.40;;
52978;SDS011;51106;53.186;6.598;2022-07-24T05:23:05;6.22;;;5.13;;
52978;SDS011;51106;53.186;6.598;2022-07-24T05:25:08;9.07;;;6.20;;
52978;SDS011;51106;53.186;6.598;2022-07-24T05:27:10;8.13;;;5.40;;
52978;SDS011;51106;53.186;6.598;2022-07-24T05:29:13;6.18;;;5.50;;
52978;SDS011;51106;53.186;6.598;2022-07-24T05:31:15;7.70;;;5.43;;
52978;SDS011;51106;53.186;6.598;2022-07-24T05:33:18;7.65;;;5.63;;
52978;SDS011;51106;53.186;6.598;2022-07-24T05:35:21;6.82;;;5.32;;
52978;SDS011;51106;53.186;6.598;2022-07-24T05:37:29;5.93;;;5.15;;
52978;SDS011;51106;53.186;6.598;2022-07-24T05:39:31;7.38;;;5.35;;
52978;SDS011;51106;53.186;6.598;2022-07-24T05:41:33;5.95;;;5.22;;
52978;SDS011;51106;53.186;6.598;2022-07-24T05:43:35;7.63;;;6.05;;
52978;SDS011;51106;53.186;6.598;2022-07-24T05:45:38;10.38;;;6.63;;
52978;SDS011;51106;53.186;6.598;2022-07-24T05:47:40;7.45;;;6.07;;
52978;SDS011;51106;53.186;6.598;2022-07-24T05:49:42;8.85;;;6.05;;
52978;SDS011;51106;53.186;6.598;2022-07-24T05:51:47;7.43;;;6.32;;
52978;SDS011;51106;53.186;6.598;2022-07-24T05:53:49;7.47;;;5.93;;
52978;SDS011;51106;53.186;6.598;2022-07-24T05:55:51;10.50;;;6.40;;
52978;SDS011;51106;53.186;6.598;2022-07-24T05:57:54;7.47;;;5.93;;
52978;SDS011;51106;53.186;6.598;2022-07-24T05:59:56;8.55;;;6.15;;
52978;SDS011;51106;53.186;6.598;2022-07-24T06:01:59;7.40;;;5.70;;
52978;SDS011;51106;53.186;6.598;2022-07-24T06:04:08;9.57;;;6.53;;
52978;SDS011;51106;53.186;6.598;2022-07-24T06:06:10;10.10;;;6.20;;
52978;SDS011;51106;53.186;6.598;2022-07-24T06:08:13;7.78;;;6.10;;
52978;SDS011;51106;53.186;6.598;2022-07-24T06:10:15;10.27;;;6.45;;
52978;SDS011;51106;53.186;6.598;2022-07-24T06:12:17;8.77;;;6.90;;
52978;SDS011;51106;53.186;6.598;2022-07-24T06:14:20;8.05;;;6.53;;
52978;SDS011;51106;53.186;6.598;2022-07-24T06:16:25;8.68;;;6.70;;
52978;SDS011;51106;53.186;6.598;2022-07-24T06:18:27;8.93;;;6.78;;
52978;SDS011;51106;53.186;6.598;2022-07-24T06:20:30;13.40;;;7.28;;
52978;SDS011;51106;53.186;6.598;2022-07-24T06:22:33;8.88;;;7.45;;
52978;SDS011;51106;53.186;6.598;2022-07-24T06:24:35;16.38;;;6.82;;
52978;SDS011;51106;53.186;6.598;2022-07-24T06:26:37;10.13;;;7.47;;
52978;SDS011;51106;53.186;6.598;2022-07-24T06:28:59;10.13;;;7.25;;
52978;SDS011;51106;53.186;6.598;2022-07-24T06:31:04;9.45;;;7.60;;
52978;SDS011;51106;53.186;6.598;2022-07-24T06:33:06;9.18;;;7.68;;
52978;SDS011;51106;53.186;6.598;2022-07-24T06:35:08;9.43;;;7.53;;
52978;SDS011;51106;53.186;6.598;2022-07-24T06:37:11;14.25;;;8.93;;
52978;SDS011;51106;53.186;6.598;2022-07-24T06:39:13;9.32;;;7.63;;
52978;SDS011;51106;53.186;6.598;2022-07-24T06:41:15;12.15;;;8.40;;
52978;SDS011;51106;53.186;6.598;2022-07-24T06:43:17;12.15;;;8.63;;
52978;SDS011;51106;53.186;6.598;2022-07-24T06:45:19;12.00;;;8.88;;
52978;SDS011;51106;53.186;6.598;2022-07-24T06:47:21;10.88;;;8.90;;
52978;SDS011;51106;53.186;6.598;2022-07-24T06:49:26;14.45;;;9.60;;
52978;SDS011;51106;53.186;6.598;2022-07-24T06:51:28;13.60;;;9.00;;
52978;SDS011;51106;53.186;6.598;2022-07-24T06:53:30;13.77;;;9.02;;
52978;SDS011;51106;53.186;6.598;2022-07-24T06:55:32;12.23;;;8.82;;
52978;SDS011;51106;53.186;6.598;2022-07-24T06:57:34;10.13;;;7.85;;
52978;SDS011;51106;53.186;6.598;2022-07-24T06:59:36;14.45;;;8.95;;
52978;SDS011;51106;53.186;6.598;2022-07-24T07:01:38;11.82;;;8.52;;
52978;SDS011;51106;53.186;6.598;2022-07-24T07:03:40;11.57;;;8.38;;
52978;SDS011;51106;53.186;6.598;2022-07-24T07:05:44;13.75;;;9.15;;
52978;SDS011;51106;53.186;6.598;2022-07-24T07:07:46;10.90;;;9.02;;
52978;SDS011;51106;53.186;6.598;2022-07-24T07:09:48;14.10;;;9.45;;
52978;SDS011;51106;53.186;6.598;2022-07-24T07:11:50;9.95;;;8.90;;
52978;SDS011;51106;53.186;6.598;2022-07-24T07:13:54;11.52;;;8.73;;
52978;SDS011;51106;53.186;6.598;2022-07-24T07:15:56;13.75;;;9.40;;
52978;SDS011;51106;53.186;6.598;2022-07-24T07:17:58;12.27;;;9.23;;
52978;SDS011;51106;53.186;6.598;2022-07-24T07:20:00;12.23;;;10.45;;
52978;SDS011;51106;53.186;6.598;2022-07-24T07:22:03;13.27;;;10.23;;
52978;SDS011;51106;53.186;6.598;2022-07-24T07:24:05;14.43;;;9.43;;
52978;SDS011;51106;53.186;6.598;2022-07-24T07:26:07;11.50;;;9.27;;
52978;SDS011;51106;53.186;6.598;2022-07-24T07:28:13;14.18;;;9.65;;
52978;SDS011;51106;53.186;6.598;2022-07-24T07:30:15;12.70;;;9.88;;
52978;SDS011;51106;53.186;6.598;2022-07-24T07:32:17;12.90;;;10.05;;
52978;SDS011;51106;53.186;6.598;2022-07-24T07:34:19;12.73;;;9.45;;
52978;SDS011;51106;53.186;6.598;2022-07-24T07:36:21;10.88;;;9.35;;
52978;SDS011;51106;53.186;6.598;2022-07-24T07:38:30;10.27;;;9.10;;
52978;SDS011;51106;53.186;6.598;2022-07-24T07:40:32;13.15;;;8.80;;
52978;SDS011;51106;53.186;6.598;2022-07-24T07:42:34;14.55;;;9.48;;
52978;SDS011;51106;53.186;6.598;2022-07-24T07:44:36;12.60;;;7.97;;
52978;SDS011;51106;53.186;6.598;2022-07-24T07:46:39;11.30;;;8.13;;
52978;SDS011;51106;53.186;6.598;2022-07-24T07:48:42;10.38;;;7.80;;
52978;SDS011;51106;53.186;6.598;2022-07-24T07:50:44;14.57;;;7.70;;
52978;SDS011;51106;53.186;6.598;2022-07-24T07:52:46;10.90;;;7.57;;
52978;SDS011;51106;53.186;6.598;2022-07-24T07:54:51;7.25;;;6.15;;
52978;SDS011;51106;53.186;6.598;2022-07-24T07:56:54;9.40;;;5.95;;
52978;SDS011;51106;53.186;6.598;2022-07-24T07:58:58;8.73;;;5.90;;
52978;SDS011;51106;53.186;6.598;2022-07-24T08:01:04;10.02;;;5.90;;
52978;SDS011;51106;53.186;6.598;2022-07-24T08:03:07;6.40;;;5.38;;
52978;SDS011;51106;53.186;6.598;2022-07-24T08:05:09;8.70;;;5.35;;
52978;SDS011;51106;53.186;6.598;2022-07-24T08:07:14;7.13;;;5.00;;
52978;SDS011;51106;53.186;6.598;2022-07-24T08:09:20;6.25;;;4.60;;
52978;SDS011;51106;53.186;6.598;2022-07-24T08:11:23;7.97;;;4.25;;
52978;SDS011;51106;53.186;6.598;2022-07-24T08:13:25;5.65;;;4.05;;
52978;SDS011;51106;53.186;6.598;2022-07-24T08:15:28;8.40;;;4.38;;
52978;SDS011;51106;53.186;6.598;2022-07-24T08:17:30;5.75;;;3.83;;
52978;SDS011;51106;53.186;6.598;2022-07-24T08:19:32;5.18;;;3.75;;
52978;SDS011;51106;53.186;6.598;2022-07-24T08:21:34;4.57;;;3.75;;
52978;SDS011;51106;53.186;6.598;2022-07-24T08:23:39;7.95;;;3.97;;
52978;SDS011;51106;53.186;6.598;2022-07-24T08:25:41;4.10;;;3.50;;
52978;SDS011;51106;53.186;6.598;2022-07-24T08:27:43;4.93;;;3.40;;
52978;SDS011;51106;53.186;6.598;2022-07-24T08:29:46;5.20;;;4.05;;
52978;SDS011;51106;53.186;6.598;2022-07-24T08:31:54;5.55;;;4.00;;
52978;SDS011;51106;53.186;6.598;2022-07-24T08:33:56;6.00;;;3.83;;
52978;SDS011;51106;53.186;6.598;2022-07-24T08:35:58;6.18;;;3.63;;
52978;SDS011;51106;53.186;6.598;2022-07-24T08:38:00;4.97;;;3.92;;
52978;SDS011;51106;53.186;6.598;2022-07-24T08:40:03;6.43;;;4.20;;
52978;SDS011;51106;53.186;6.598;2022-07-24T08:42:09;7.57;;;4.25;;
52978;SDS011;51106;53.186;6.598;2022-07-24T08:44:11;4.68;;;4.05;;
52978;SDS011;51106;53.186;6.598;2022-07-24T08:46:14;4.63;;;3.90;;
52978;SDS011;51106;53.186;6.598;2022-07-24T08:48:17;6.35;;;3.70;;
52978;SDS011;51106;53.186;6.598;2022-07-24T08:50:22;6.38;;;4.00;;
52978;SDS011;51106;53.186;6.598;2022-07-24T08:52:25;4.93;;;3.88;;
52978;SDS011;51106;53.186;6.598;2022-07-24T08:54:27;5.70;;;4.00;;
52978;SDS011;51106;53.186;6.598;2022-07-24T08:56:29;4.28;;;3.60;;
52978;SDS011;51106;53.186;6.598;2022-07-24T08:58:36;5.38;;;3.50;;
52978;SDS011;51106;53.186;6.598;2022-07-24T09:00:39;6.60;;;3.78;;
52978;SDS011;51106;53.186;6.598;2022-07-24T09:02:42;5.68;;;4.22;;
52978;SDS011;51106;53.186;6.598;2022-07-24T09:04:46;7.32;;;3.58;;
52978;SDS011;51106;53.186;6.598;2022-07-24T09:06:55;5.97;;;3.70;;
52978;SDS011;51106;53.186;6.598;2022-07-24T09:09:02;6.38;;;3.88;;
52978;SDS011;51106;53.186;6.598;2022-07-24T09:11:06;6.25;;;4.20;;
52978;SDS011;51106;53.186;6.598;2022-07-24T09:13:16;11.73;;;4.25;;
52978;SDS011;51106;53.186;6.598;2022-07-24T09:15:20;11.50;;;4.15;;
52978;SDS011;51106;53.186;6.598;2022-07-24T09:17:25;5.72;;;4.00;;
52978;SDS011;51106;53.186;6.598;2022-07-24T09:19:46;6.60;;;3.97;;
52978;SDS011;51106;53.186;6.598;2022-07-24T09:21:58;4.97;;;3.85;;
52978;SDS011;51106;53.186;6.598;2022-07-24T09:24:10;9.80;;;4.00;;
52978;SDS011;51106;53.186;6.598;2022-07-24T09:26:17;6.72;;;3.88;;
52978;SDS011;51106;53.186;6.598;2022-07-24T09:28:19;7.15;;;3.90;;
52978;SDS011;51106;53.186;6.598;2022-07-24T09:30:31;5.10;;;3.87;;
52978;SDS011;51106;53.186;6.598;2022-07-24T09:32:34;4.90;;;3.75;;
52978;SDS011;51106;53.186;6.598;2022-07-24T09:34:38;6.93;;;3.90;;
52978;SDS011;51106;53.186;6.598;2022-07-24T09:36:41;6.80;;;4.10;;
52978;SDS011;51106;53.186;6.598;2022-07-24T09:38:51;4.47;;;3.63;;
52978;SDS011;51106;53.186;6.598;2022-07-24T09:40:55;3.90;;;3.35;;
52978;SDS011;51106;53.186;6.598;2022-07-24T09:47:54;6.78;;;3.95;;
52978;SDS011;51106;53.186;6.598;2022-07-24T09:49:57;4.72;;;3.55;;
52978;SDS011;51106;53.186;6.598;2022-07-24T09:52:14;7.43;;;3.95;;
52978;SDS011;51106;53.186;6.598;2022-07-24T09:54:28;6.18;;;3.67;;
52978;SDS011;51106;53.186;6.598;2022-07-24T09:56:34;6.30;;;3.78;;
52978;SDS011;51106;53.186;6.598;2022-07-24T09:58:38;8.05;;;3.90;;
52978;SDS011;51106;53.186;6.598;2022-07-24T10:00:44;5.97;;;3.72;;
52978;SDS011;51106;53.186;6.598;2022-07-24T10:02:50;5.97;;;3.92;;
52978;SDS011;51106;53.186;6.598;2022-07-24T10:04:59;6.40;;;3.83;;
52978;SDS011;51106;53.186;6.598;2022-07-24T10:07:03;6.90;;;3.80;;
52978;SDS011;51106;53.186;6.598;2022-07-24T10:09:10;6.45;;;3.22;;
52978;SDS011;51106;53.186;6.598;2022-07-24T10:11:23;4.63;;;3.20;;
52978;SDS011;51106;53.186;6.598;2022-07-24T10:13:26;7.03;;;3.10;;
52978;SDS011;51106;53.186;6.598;2022-07-24T10:15:34;3.83;;;3.08;;
52978;SDS011;51106;53.186;6.598;2022-07-24T10:20:08;6.03;;;3.58;;
52978;SDS011;51106;53.186;6.598;2022-07-24T10:22:36;3.67;;;3.00;;
52978;SDS011;51106;53.186;6.598;2022-07-24T10:24:55;6.50;;;3.30;;
52978;SDS011;51106;53.186;6.598;2022-07-24T10:27:02;4.25;;;3.60;;
52978;SDS011;51106;53.186;6.598;2022-07-24T10:29:13;7.05;;;3.50;;
52978;SDS011;51106;53.186;6.598;2022-07-24T10:31:18;7.15;;;3.67;;
52978;SDS011;51106;53.186;6.598;2022-07-24T10:33:21;4.60;;;3.50;;
52978;SDS011;51106;53.186;6.598;2022-07-24T10:35:26;6.63;;;3.50;;
52978;SDS011;51106;53.186;6.598;2022-07-24T10:42:05;6.57;;;3.45;;
52978;SDS011;51106;53.186;6.598;2022-07-24T10:44:15;5.05;;;3.33;;
52978;SDS011;51106;53.186;6.598;2022-07-24T10:46:21;4.28;;;3.58;;
52978;SDS011;51106;53.186;6.598;2022-07-24T10:48:25;5.18;;;3.30;;
52978;SDS011;51106;53.186;6.598;2022-07-24T10:50:59;5.22;;;3.42;;
52978;SDS011;51106;53.186;6.598;2022-07-24T10:53:19;6.50;;;3.35;;
52978;SDS011;51106;53.186;6.598;2022-07-24T10:55:29;4.15;;;3.22;;
52978;SDS011;51106;53.186;6.598;2022-07-24T10:57:46;5.18;;;3.00;;
52978;SDS011;51106;53.186;6.598;2022-07-24T10:59:51;4.75;;;3.15;;
52978;SDS011;51106;53.186;6.598;2022-07-24T11:01:54;6.70;;;3.20;;
52978;SDS011;51106;53.186;6.598;2022-07-24T11:03:56;4.30;;;3.17;;
52978;SDS011;51106;53.186;6.598;2022-07-24T11:06:04;4.57;;;3.03;;
52978;SDS011;51106;53.186;6.598;2022-07-24T11:10:20;8.68;;;2.85;;
52978;SDS011;51106;53.186;6.598;2022-07-24T11:12:49;7.90;;;4.07;;
52978;SDS011;51106;53.186;6.598;2022-07-24T11:14:51;3.63;;;2.70;;
52978;SDS011;51106;53.186;6.598;2022-07-24T11:16:53;4.18;;;2.90;;
52978;SDS011;51106;53.186;6.598;2022-07-24T11:20:59;5.38;;;2.88;;
52978;SDS011;51106;53.186;6.598;2022-07-24T11:23:01;3.65;;;3.08;;
52978;SDS011;51106;53.186;6.598;2022-07-24T11:25:28;4.65;;;3.30;;
52978;SDS011;51106;53.186;6.598;2022-07-24T11:27:40;4.30;;;3.22;;
52978;SDS011;51106;53.186;6.598;2022-07-24T11:29:44;4.40;;;2.85;;
52978;SDS011;51106;53.186;6.598;2022-07-24T11:31:47;4.55;;;3.08;;
52978;SDS011;51106;53.186;6.598;2022-07-24T11:33:53;4.55;;;2.85;;
52978;SDS011;51106;53.186;6.598;2022-07-24T11:35:59;5.38;;;2.97;;
52978;SDS011;51106;53.186;6.598;2022-07-24T11:38:09;6.07;;;3.42;;
52978;SDS011;51106;53.186;6.598;2022-07-24T11:40:13;4.40;;;2.92;;
52978;SDS011;51106;53.186;6.598;2022-07-24T11:42:17;3.40;;;3.03;;
52978;SDS011;51106;53.186;6.598;2022-07-24T11:44:29;3.55;;;3.25;;
52978;SDS011;51106;53.186;6.598;2022-07-24T11:46:34;4.45;;;3.20;;
52978;SDS011;51106;53.186;6.598;2022-07-24T11:48:37;3.38;;;2.88;;
52978;SDS011;51106;53.186;6.598;2022-07-24T11:50:39;3.63;;;2.88;;
52978;SDS011;51106;53.186;6.598;2022-07-24T11:52:41;3.83;;;3.03;;
52978;SDS011;51106;53.186;6.598;2022-07-24T11:54:43;5.03;;;3.22;;
52978;SDS011;51106;53.186;6.598;2022-07-24T11:56:46;5.65;;;3.03;;
52978;SDS011;51106;53.186;6.598;2022-07-24T11:58:52;4.85;;;3.20;;
52978;SDS011;51106;53.186;6.598;2022-07-24T12:00:56;4.50;;;2.90;;
52978;SDS011;51106;53.186;6.598;2022-07-24T12:02:59;3.70;;;3.00;;
52978;SDS011;51106;53.186;6.598;2022-07-24T12:05:05;6.00;;;2.80;;
52978;SDS011;51106;53.186;6.598;2022-07-24T12:07:11;4.45;;;3.00;;
52978;SDS011;51106;53.186;6.598;2022-07-24T12:09:16;7.90;;;3.05;;
52978;SDS011;51106;53.186;6.598;2022-07-24T12:11:19;4.32;;;3.20;;
52978;SDS011;51106;53.186;6.598;2022-07-24T12:13:29;4.45;;;3.03;;
52978;SDS011;51106;53.186;6.598;2022-07-24T12:15:36;5.93;;;3.28;;
52978;SDS011;51106;53.186;6.598;2022-07-24T12:17:54;5.18;;;3.47;;
52978;SDS011;51106;53.186;6.598;2022-07-24T12:20:03;4.47;;;3.35;;
52978;SDS011;51106;53.186;6.598;2022-07-24T12:22:07;4.07;;;3.25;;
52978;SDS011;51106;53.186;6.598;2022-07-24T12:24:10;4.72;;;2.97;;
52978;SDS011;51106;53.186;6.598;2022-07-24T12:26:13;3.88;;;2.85;;
52978;SDS011;51106;53.186;6.598;2022-07-24T12:28:17;5.35;;;3.22;;
52978;SDS011;51106;53.186;6.598;2022-07-24T12:30:21;4.70;;;3.33;;
52978;SDS011;51106;53.186;6.598;2022-07-24T12:32:36;4.47;;;3.00;;
52978;SDS011;51106;53.186;6.598;2022-07-24T12:34:54;3.25;;;2.72;;
52978;SDS011;51106;53.186;6.598;2022-07-24T12:37:16;7.78;;;3.30;;
52978;SDS011;51106;53.186;6.598;2022-07-24T12:39:27;5.25;;;3.30;;
52978;SDS011;51106;53.186;6.598;2022-07-24T12:41:29;3.80;;;2.92;;
52978;SDS011;51106;53.186;6.598;2022-07-24T12:43:33;4.93;;;3.20;;